Flight Track Log - Related Links

Times and Time Zones

All times are in EDT time to prevent confusion due to time zone crossing. See the AWI3680 flight status page for this flight to view local times or setup timezone preferences in your user account.

Time Position Orientation Groundspeed Altitude Reporting Facility
EDT Latitude Longitude Course Direction KTS MPH feet Rate Location/Type
Sat 20:23:31 39.8667 -75.2833 105° East 164 189 700  Level Philadelphia TRACON
Sat 20:24:37 39.8167 -75.3167 207° Southwest 205 236 2,700 1,857 Climbing Philadelphia TRACON
Sat 20:25:37 39.7667 -75.3333 194° South 228 262 4,600 2,000 Climbing Philadelphia TRACON
Sat 20:26:00 39.8167 -74.9112 90° East  Level FlightAware Approximate
Sat 20:27:00 39.8089 -74.8276 105° East  Level FlightAware Approximate
Sat 20:27:52 39.7736 -75.1006 88° East 285 328 9,200  Level New York Center
Sat 20:28:00 39.7925 -74.7455 105° East  Level FlightAware Approximate
Sat 20:28:53 39.7797 -74.9900 86° East 298 343 11,000  Level New York Center
Sat 20:29:53 39.7839 -74.8689 87° East 321 369 11,900 1,068 Climbing New York Center
Sat 20:30:51 39.7989 -74.7347 82° East 354 407 13,100 1,412 Climbing New York Center
Sat 20:31:52 39.8728 -74.6414 44° Northeast 344 396 14,700 1,438 Climbing New York Center
Sat 20:32:52 39.9569 -74.5567 38° Northeast 353 406 16,000 1,300 Climbing New York Center
Sat 20:33:52 40.0431 -74.4692 38° Northeast 381 438 17,300 1,041 Climbing New York Center
Sat 20:34:53 40.1311 -74.3869 36° Northeast 386 444 18,100 836 Climbing New York Center
Sat 20:35:54 40.2150 -74.3017 38° Northeast 386 444 19,000 814 Climbing New York Center
Sat 20:36:51 40.3050 -74.2192 35° Northeast 386 444 19,700 678 Climbing New York Center
Sat 20:38:51 40.4983 -74.0803 29° Northeast 394 453 21,000 433 Climbing Boston Center
Sat 20:39:51 40.5886 -74.0197 27° Northeast 394 453 21,000  Level Boston Center
Sat 20:40:51 40.6814 -73.9481 30° Northeast 389 448 21,000  Level Boston Center
Sat 20:41:51 40.7783 -73.8736 30° Northeast 389 448 21,000  Level Boston Center
Sat 20:42:51 40.8628 -73.7739 42° Northeast 395 455 21,000  Level Boston Center
Sat 20:43:51 40.9536 -73.6603 43° Northeast 400 460 21,000  Level Boston Center
Sat 20:44:51 41.0339 -73.5711 40° Northeast 408 470 21,000 -100 Level Boston Center
Sat 20:45:51 41.1367 -73.4928 30° Northeast 397 457 20,800 -500 Descending Boston Center
Sat 20:46:51 41.2614 -73.5197 351° North 397 457 20,000 -400 Descending Boston Center
Sat 20:47:51 41.3906 -73.5442 352° North 428 493 20,000  Level Boston Center
Sat 20:48:51 41.5133 -73.5656 353° North 438 504 20,000 -150 Level Boston Center
Sat 20:49:51 41.6275 -73.5900 351° North 438 504 19,700 -1,000 Descending Boston Center
Sat 20:50:51 41.7336 -73.6083 353° North 396 456 18,000 -2,000 Descending Boston Center
Sat 20:51:51 41.8336 -73.6269 352° North 368 423 15,700 -2,348 Descending Boston Center
Sat 20:52:46 41.9231 -73.6456 351° North 363 418 13,500 -2,077 Descending Boston Center
Sat 20:53:35 42.0019 -73.6581 353° North 359 413 12,100 -1,376 Descending Boston Center
Sat 20:54:35 42.1039 -73.6825 350° North 341 392 11,000 -926 Descending Boston Center
Sat 20:55:51 42.2017 -73.7097 348° North 344 396 10,000 -1,180 Descending Boston Center
Sat 20:56:37 42.2719 -73.7419 341° North 292 336 8,600 -1,811 Descending Boston Center
Sat 20:57:37 42.3467 -73.7772 341° North 284 327 6,800 -1,785 Descending Boston Center
Sat 20:58:38 42.4236 -73.7931 351° North 283 326 5,000 -1,377 Descending Boston Center
Sat 20:59:39 42.5008 -73.7947 359° North 282 325 4,000 -984 Descending Boston Center

Login

Don't have an account? Register now (free) for customized features, flight alerts, and more!